createdAt,value
2022-10-25T00:00:40.918Z,1.20
2022-10-25T00:03:27.460Z,1.40
2022-10-25T00:06:14.630Z,1.27
2022-10-25T00:09:01.710Z,1.30
2022-10-25T00:11:48.403Z,1.47
2022-10-25T00:14:36.918Z,1.20
2022-10-25T00:17:23.850Z,1.30
2022-10-25T00:20:11.620Z,1.43
2022-10-25T00:22:58.998Z,1.40
2022-10-25T00:25:45.831Z,1.40
2022-10-25T00:28:32.393Z,1.30
2022-10-25T00:31:20.420Z,1.40
2022-10-25T00:34:07.280Z,1.67
2022-10-25T00:36:53.863Z,1.57
2022-10-25T00:39:40.391Z,1.40
2022-10-25T00:42:28.476Z,1.37
2022-10-25T00:45:26.796Z,1.23
2022-10-25T00:48:16.816Z,1.53
2022-10-25T00:51:04.704Z,1.63
2022-10-25T00:53:53.214Z,1.70
2022-10-25T00:56:43.879Z,1.90
2022-10-25T00:59:30.702Z,1.30
2022-10-25T01:02:18.896Z,1.70
2022-10-25T01:05:08.067Z,1.80
2022-10-25T01:07:55.176Z,1.70
2022-10-25T01:10:42.274Z,1.77
2022-10-25T01:13:28.877Z,2.00
2022-10-25T01:16:26.122Z,1.97
2022-10-25T01:19:31.837Z,1.90
2022-10-25T01:22:29.202Z,2.10
2022-10-25T01:25:46.105Z,2.20
2022-10-25T01:28:43.540Z,2.37
2022-10-25T01:31:38.407Z,1.93
2022-10-25T01:34:29.742Z,2.17
2022-10-25T01:37:22.727Z,2.00
2022-10-25T01:40:20.245Z,1.90
2022-10-25T01:43:15.324Z,1.97
2022-10-25T01:46:12.059Z,2.27
2022-10-25T01:49:05.099Z,1.87
2022-10-25T01:51:51.410Z,2.07
2022-10-25T01:54:38.009Z,1.40
2022-10-25T01:57:47.038Z,2.00
2022-10-25T02:00:41.423Z,2.73
2022-10-25T02:03:35.926Z,2.70
2022-10-25T02:06:31.617Z,3.13
2022-10-25T02:09:33.024Z,4.00
2022-10-25T02:12:26.751Z,3.63
2022-10-25T02:15:17.048Z,4.37
2022-10-25T02:18:08.144Z,4.57
2022-10-25T02:20:56.588Z,4.70
2022-10-25T02:23:45.402Z,4.27
2022-10-25T02:26:32.745Z,4.97
2022-10-25T02:29:20.885Z,4.67
2022-10-25T02:32:07.686Z,4.27
2022-10-25T02:34:54.396Z,4.70
2022-10-25T02:37:40.835Z,5.17
2022-10-25T02:40:28.944Z,4.87
2022-10-25T02:43:15.383Z,4.93
2022-10-25T02:46:07.382Z,5.33
2022-10-25T02:48:53.909Z,6.00
2022-10-25T02:51:40.330Z,5.07
2022-10-25T02:54:27.480Z,5.07
2022-10-25T02:57:15.570Z,5.30
2022-10-25T03:00:02.340Z,4.70
2022-10-25T03:02:49.604Z,4.80
2022-10-25T03:05:36.349Z,4.63
2022-10-25T03:08:23.417Z,5.43
2022-10-25T03:11:11.577Z,5.03
2022-10-25T03:13:59.644Z,4.87
2022-10-25T03:19:37.916Z,4.53
2022-10-25T03:22:24.387Z,5.00
2022-10-25T03:25:11.187Z,5.13
2022-10-25T03:28:00.343Z,4.43
2022-10-25T03:30:48.121Z,4.90
2022-10-25T03:33:34.723Z,4.70
2022-10-25T03:36:21.275Z,4.83
2022-10-25T03:39:07.663Z,4.10
2022-10-25T03:41:54.173Z,4.60
2022-10-25T03:44:40.716Z,4.33
2022-10-25T03:47:28.479Z,4.47
2022-10-25T03:50:15.475Z,4.07
2022-10-25T03:53:02.431Z,4.23
2022-10-25T03:55:49.943Z,4.40
2022-10-25T03:58:36.951Z,3.97
2022-10-25T04:01:23.662Z,4.57
2022-10-25T04:04:11.871Z,4.03
2022-10-25T04:06:58.599Z,4.50
2022-10-25T04:09:45.208Z,4.17
2022-10-25T04:12:31.739Z,4.33
2022-10-25T04:15:18.278Z,4.33
2022-10-25T04:18:05.101Z,3.93
2022-10-25T04:20:53.234Z,4.27
2022-10-25T04:23:40.030Z,4.00
2022-10-25T04:26:26.481Z,4.43
2022-10-25T04:29:13.460Z,3.73
2022-10-25T04:32:00.065Z,3.40
2022-10-25T04:34:46.503Z,3.63
2022-10-25T04:37:34.396Z,4.37
2022-10-25T04:40:23.945Z,3.60
2022-10-25T04:43:11.464Z,3.93
2022-10-25T04:46:01.453Z,4.40
2022-10-25T04:48:48.149Z,3.40
2022-10-25T04:51:35.371Z,3.33
2022-10-25T04:54:23.120Z,4.07
2022-10-25T04:57:09.864Z,4.00
2022-10-25T04:59:57.628Z,3.90
2022-10-25T05:02:44.242Z,4.50
2022-10-25T05:05:30.840Z,3.93
2022-10-25T05:08:17.447Z,3.73
2022-10-25T05:11:05.603Z,4.27
2022-10-25T05:13:52.306Z,4.53
2022-10-25T05:16:39.394Z,5.40
2022-10-25T05:19:26.288Z,4.80
2022-10-25T05:22:12.670Z,4.17
2022-10-25T05:24:59.308Z,4.17
2022-10-25T05:27:47.198Z,4.80
2022-10-25T05:30:33.808Z,4.37
2022-10-25T05:33:20.318Z,4.50
2022-10-25T05:36:07.234Z,5.40
2022-10-25T05:38:53.848Z,4.90
2022-10-25T05:41:40.315Z,4.47
2022-10-25T05:44:28.235Z,3.97
2022-10-25T05:47:14.979Z,4.40
2022-10-25T05:50:02.384Z,4.73
2022-10-25T05:52:49.099Z,4.47
2022-10-25T05:55:36.641Z,4.20
2022-10-25T05:58:23.300Z,5.30
2022-10-25T06:01:13.151Z,3.67
2022-10-25T06:03:59.844Z,4.70
2022-10-25T06:06:47.575Z,3.73
2022-10-25T06:09:34.240Z,4.00
2022-10-25T06:12:20.679Z,4.13
2022-10-25T06:15:08.564Z,4.17
2022-10-25T06:17:56.601Z,3.83
2022-10-25T06:20:43.405Z,3.60
2022-10-25T06:23:31.536Z,3.97
2022-10-25T06:26:20.345Z,3.03
2022-10-25T06:29:07.036Z,3.90
2022-10-25T06:31:53.586Z,3.40
2022-10-25T06:34:41.361Z,3.67
2022-10-25T06:37:28.088Z,3.43
2022-10-25T06:40:14.650Z,3.97
2022-10-25T06:43:01.400Z,3.90
2022-10-25T06:45:47.849Z,2.77
2022-10-25T06:48:34.720Z,2.97
2022-10-25T06:51:23.847Z,3.40
2022-10-25T06:54:10.584Z,3.30
2022-10-25T06:56:56.936Z,3.03
2022-10-25T06:59:43.496Z,2.90
2022-10-25T07:02:30.002Z,2.70
2022-10-25T07:05:17.059Z,2.90
2022-10-25T07:08:05.348Z,3.37
2022-10-25T07:10:54.866Z,2.97
2022-10-25T07:13:41.472Z,2.87
2022-10-25T07:16:29.089Z,3.20
2022-10-25T07:19:15.942Z,3.47
2022-10-25T07:22:02.358Z,3.00
2022-10-25T07:24:50.107Z,3.43
2022-10-25T07:27:36.951Z,3.20
2022-10-25T07:30:23.523Z,3.40
2022-10-25T07:33:10.513Z,3.67
2022-10-25T07:36:09.883Z,2.93
2022-10-25T07:38:57.368Z,3.33
2022-10-25T07:41:45.494Z,3.37
2022-10-25T07:44:32.407Z,3.40
2022-10-25T07:47:18.724Z,3.30
2022-10-25T07:50:05.565Z,3.57
2022-10-25T07:52:52.057Z,2.73
2022-10-25T07:55:38.569Z,3.63
2022-10-25T07:58:26.690Z,3.33
2022-10-25T08:01:21.646Z,3.17
2022-10-25T08:04:08.303Z,3.40
2022-10-25T08:06:54.824Z,3.27
2022-10-25T08:09:41.356Z,3.60
2022-10-25T08:12:28.040Z,3.07
2022-10-25T08:15:16.557Z,3.13
2022-10-25T08:18:04.718Z,3.47
2022-10-25T08:21:06.477Z,3.10
2022-10-25T08:23:53.125Z,3.30
2022-10-25T08:26:39.546Z,3.10
2022-10-25T08:29:27.784Z,2.67
2022-10-25T08:32:16.096Z,3.43
2022-10-25T08:35:02.957Z,3.13
2022-10-25T08:37:49.347Z,3.10
2022-10-25T08:40:47.897Z,3.43
2022-10-25T08:43:56.249Z,3.37
2022-10-25T08:46:50.275Z,3.50
2022-10-25T08:49:47.871Z,3.10
2022-10-25T08:52:38.925Z,3.33
2022-10-25T08:55:30.624Z,2.90
2022-10-25T08:58:24.519Z,3.17
2022-10-25T09:01:17.269Z,3.10
2022-10-25T09:04:04.199Z,3.30
2022-10-25T09:07:00.248Z,3.43
2022-10-25T09:09:53.940Z,3.67
2022-10-25T09:12:46.857Z,2.90
2022-10-25T09:15:46.892Z,3.10
2022-10-25T09:18:41.799Z,2.87
2022-10-25T09:21:39.239Z,2.90
2022-10-25T09:24:34.344Z,3.20
2022-10-25T09:27:32.672Z,2.53
2022-10-25T09:30:19.724Z,3.07
2022-10-25T09:33:11.522Z,3.53
2022-10-25T09:35:59.774Z,2.70
2022-10-25T09:38:51.459Z,3.10
2022-10-25T09:41:44.412Z,2.70
2022-10-25T09:44:38.404Z,2.70
2022-10-25T09:47:36.636Z,3.13
2022-10-25T09:50:28.130Z,2.67
2022-10-25T09:53:18.889Z,2.77
2022-10-25T09:56:08.500Z,2.90
2022-10-25T09:58:57.979Z,3.07
2022-10-25T10:01:44.990Z,2.80
2022-10-25T10:04:36.289Z,3.33
2022-10-25T10:07:27.502Z,2.80
2022-10-25T10:10:16.817Z,2.73
2022-10-25T10:13:07.420Z,2.57
2022-10-25T10:15:58.084Z,3.50
2022-10-25T10:18:44.687Z,2.90
2022-10-25T10:21:31.504Z,3.00
2022-10-25T10:24:20.868Z,3.20
2022-10-25T10:27:09.663Z,3.70
2022-10-25T10:29:59.069Z,3.40
2022-10-25T10:32:46.989Z,3.57
2022-10-25T10:35:35.129Z,2.90
2022-10-25T10:38:27.301Z,3.00
2022-10-25T10:41:16.104Z,3.10
2022-10-25T10:44:13.684Z,3.47
2022-10-25T10:47:00.893Z,3.27
2022-10-25T10:49:49.415Z,3.50
2022-10-25T10:52:40.986Z,2.97
2022-10-25T10:55:30.973Z,3.50
2022-10-25T10:58:20.092Z,3.33
2022-10-25T11:01:08.647Z,3.47
2022-10-25T11:04:00.228Z,2.70
2022-10-25T11:06:48.789Z,3.87
2022-10-25T11:09:35.495Z,3.40
2022-10-25T11:12:22.291Z,3.03
2022-10-25T11:15:12.711Z,2.80
2022-10-25T11:18:04.354Z,2.53
2022-10-25T11:20:56.740Z,2.90
2022-10-25T11:23:56.544Z,2.93
2022-10-25T11:26:54.279Z,2.77
2022-10-25T11:30:03.264Z,2.80
2022-10-25T11:33:24.783Z,2.43
2022-10-25T11:36:24.826Z,2.43
2022-10-25T11:39:24.855Z,2.53
2022-10-25T11:42:28.208Z,2.00
2022-10-25T11:45:32.920Z,2.30
2022-10-25T11:48:47.349Z,2.20
2022-10-25T11:51:43.057Z,2.20
2022-10-25T11:54:38.535Z,2.30
2022-10-25T11:57:38.883Z,1.97
2022-10-25T12:00:35.945Z,2.00
2022-10-25T12:03:47.537Z,2.50
2022-10-25T12:06:42.153Z,1.83
2022-10-25T12:09:42.042Z,2.00
2022-10-25T12:12:38.671Z,2.00
2022-10-25T12:15:34.619Z,2.17
2022-10-25T12:18:26.210Z,2.70
2022-10-25T12:21:19.227Z,2.17
2022-10-25T12:24:07.877Z,2.40
2022-10-25T12:26:56.693Z,1.90
2022-10-25T12:29:47.280Z,1.93
2022-10-25T12:32:38.487Z,1.77
2022-10-25T12:35:29.574Z,2.10
2022-10-25T12:38:21.323Z,1.80
2022-10-25T12:41:15.429Z,1.90
2022-10-25T12:44:17.892Z,1.80
2022-10-25T12:47:20.120Z,1.50
2022-10-25T12:50:45.711Z,1.97
2022-10-25T12:54:03.276Z,1.60
2022-10-25T12:57:00.734Z,1.43
2022-10-25T13:00:02.545Z,1.77
2022-10-25T13:03:33.289Z,1.60
2022-10-25T13:06:30.352Z,1.80
2022-10-25T13:09:22.174Z,1.90
2022-10-25T13:12:22.180Z,1.70
2022-10-25T13:15:20.290Z,1.80
2022-10-25T13:18:08.484Z,1.70
2022-10-25T13:20:55.264Z,2.00
2022-10-25T13:24:00.838Z,1.60
2022-10-25T13:27:20.037Z,1.40
2022-10-25T13:30:26.955Z,1.90
2022-10-25T13:33:33.772Z,1.70
2022-10-25T13:36:48.144Z,1.80
2022-10-25T13:39:39.988Z,1.73
2022-10-25T13:42:32.979Z,1.30
2022-10-25T13:45:33.561Z,1.30
2022-10-25T13:48:30.859Z,1.30
2022-10-25T13:51:21.482Z,1.30
2022-10-25T13:54:12.786Z,1.60
2022-10-25T13:57:00.183Z,1.70
2022-10-25T14:00:03.210Z,1.80
2022-10-25T14:03:34.596Z,1.60
2022-10-25T14:06:28.365Z,1.40
2022-10-25T14:09:24.459Z,1.40
2022-10-25T14:12:19.392Z,1.67
2022-10-25T14:15:15.673Z,1.67
2022-10-25T14:18:09.688Z,1.83
2022-10-25T14:21:01.858Z,1.70
2022-10-25T14:23:52.519Z,1.60
2022-10-25T14:26:40.005Z,1.70
2022-10-25T14:29:29.635Z,1.60
2022-10-25T14:32:20.977Z,1.60
2022-10-25T14:35:13.895Z,1.60
2022-10-25T14:38:01.054Z,1.63
2022-10-25T14:40:54.280Z,1.60
2022-10-25T14:43:42.484Z,1.47
2022-10-25T14:46:31.132Z,1.60
2022-10-25T14:49:17.927Z,1.43
2022-10-25T14:52:07.746Z,1.30
2022-10-25T14:54:58.758Z,1.53
2022-10-25T14:57:47.739Z,1.70
2022-10-25T15:00:34.350Z,1.40
2022-10-25T15:03:21.375Z,1.10
2022-10-25T15:06:08.186Z,2.33
2022-10-25T15:09:14.857Z,1.57
2022-10-25T15:12:07.489Z,1.50
2022-10-25T15:14:56.822Z,1.67
2022-10-25T15:17:51.758Z,1.70
2022-10-25T15:20:38.301Z,1.40
2022-10-25T15:23:25.521Z,1.40
2022-10-25T15:26:27.296Z,1.53
2022-10-25T15:29:13.892Z,1.57
2022-10-25T15:32:01.811Z,1.90
2022-10-25T15:34:50.523Z,1.60
2022-10-25T15:37:41.029Z,1.80
2022-10-25T15:40:27.691Z,1.90
2022-10-25T15:43:14.295Z,1.40
2022-10-25T15:46:01.633Z,1.93
2022-10-25T15:48:49.775Z,1.80
2022-10-25T15:51:39.540Z,1.90
2022-10-25T15:54:26.328Z,1.90
2022-10-25T15:57:12.852Z,2.10
2022-10-25T15:59:59.199Z,2.03
2022-10-25T16:02:46.499Z,3.73
2022-10-25T16:05:37.312Z,1.90
2022-10-25T16:08:23.970Z,11.80
2022-10-25T16:11:17.315Z,37.77
2022-10-25T16:14:04.997Z,14.07
2022-10-25T16:16:52.209Z,5.57
2022-10-25T16:19:39.052Z,2.17
2022-10-25T16:22:26.932Z,2.03
2022-10-25T16:25:13.940Z,2.40
2022-10-25T16:28:00.971Z,2.90
2022-10-25T16:30:48.489Z,2.83
2022-10-25T16:33:34.764Z,2.13
2022-10-25T16:36:21.248Z,2.10
2022-10-25T16:39:11.396Z,2.20
2022-10-25T16:41:58.417Z,2.20
2022-10-25T16:44:45.071Z,2.10
2022-10-25T16:47:31.602Z,2.50
2022-10-25T16:50:23.065Z,2.17
2022-10-25T16:53:12.606Z,2.37
2022-10-25T16:56:00.956Z,2.70
2022-10-25T16:58:47.296Z,2.50
2022-10-25T17:01:39.013Z,2.67
2022-10-25T17:04:28.798Z,2.30
2022-10-25T17:07:15.892Z,1.90
2022-10-25T17:10:02.545Z,2.80
2022-10-25T17:12:52.395Z,2.40
2022-10-25T17:15:38.865Z,2.60
2022-10-25T17:18:26.956Z,2.50
2022-10-25T17:21:16.536Z,2.20
2022-10-25T17:24:03.901Z,2.00
2022-10-25T17:26:50.436Z,2.40
2022-10-25T17:29:38.580Z,2.73
2022-10-25T17:32:25.005Z,3.03
2022-10-25T17:35:11.919Z,2.40
2022-10-25T17:37:58.783Z,2.53
2022-10-25T17:40:47.150Z,2.87
2022-10-25T17:43:35.486Z,2.77
2022-10-25T17:46:25.935Z,3.33
2022-10-25T17:49:12.403Z,3.00
2022-10-25T17:51:58.934Z,3.00
2022-10-25T17:54:45.392Z,3.20
2022-10-25T17:57:31.796Z,3.03
2022-10-25T18:00:18.259Z,3.03
2022-10-25T18:03:06.364Z,2.87
2022-10-25T18:05:52.921Z,3.23
2022-10-25T18:08:39.749Z,3.30
2022-10-25T18:11:28.421Z,3.50
2022-10-25T18:14:15.120Z,3.60
2022-10-25T18:17:01.653Z,3.50
2022-10-25T18:19:49.320Z,3.77
2022-10-25T18:22:36.063Z,3.87
2022-10-25T18:25:22.591Z,3.20
2022-10-25T18:28:09.253Z,3.43
2022-10-25T18:31:00.927Z,3.93
2022-10-25T18:33:48.357Z,3.70
2022-10-25T18:36:36.267Z,3.90
2022-10-25T18:39:23.056Z,3.90
2022-10-25T18:42:09.441Z,4.50
2022-10-25T18:44:56.048Z,4.23
2022-10-25T18:47:42.524Z,4.00
2022-10-25T18:50:28.966Z,4.03
2022-10-25T18:53:17.352Z,5.27
2022-10-25T18:56:03.893Z,4.53
2022-10-25T18:58:50.612Z,4.93
2022-10-25T19:01:38.058Z,6.10
2022-10-25T19:04:25.025Z,6.40
2022-10-25T19:07:11.632Z,6.27
2022-10-25T19:09:59.673Z,5.70
2022-10-25T19:12:46.778Z,5.30
2022-10-25T19:15:33.733Z,7.00
2022-10-25T19:18:20.378Z,7.33
2022-10-25T19:21:09.072Z,7.37
2022-10-25T19:23:57.048Z,7.67
2022-10-25T19:26:45.167Z,7.03
2022-10-25T19:29:31.719Z,7.20
2022-10-25T19:32:18.139Z,6.30
2022-10-25T19:35:04.747Z,6.73
2022-10-25T19:37:51.662Z,6.77
2022-10-25T19:40:38.695Z,7.10
2022-10-25T19:43:26.625Z,7.00
2022-10-25T19:46:14.103Z,6.90
2022-10-25T19:49:01.254Z,7.80
2022-10-25T19:51:47.975Z,7.43
2022-10-25T19:54:34.325Z,6.60
2022-10-25T19:57:20.740Z,7.17
2022-10-25T20:00:12.716Z,6.93
2022-10-25T20:03:01.128Z,6.70
2022-10-25T20:05:47.519Z,6.90
2022-10-25T20:08:34.690Z,6.70
2022-10-25T20:11:22.604Z,6.93
2022-10-25T20:14:09.800Z,7.30
2022-10-25T20:16:57.791Z,6.87
2022-10-25T20:19:44.468Z,7.30
2022-10-25T20:22:32.100Z,6.53
2022-10-25T20:25:18.610Z,8.00
2022-10-25T20:28:06.181Z,7.43
2022-10-25T20:30:53.099Z,6.83
2022-10-25T20:33:41.104Z,7.23
2022-10-25T20:36:28.290Z,6.90
2022-10-25T20:39:14.914Z,7.27
2022-10-25T20:42:01.348Z,6.90
2022-10-25T20:44:47.837Z,6.87
2022-10-25T20:47:34.418Z,6.60
2022-10-25T20:50:22.228Z,7.10
2022-10-25T20:53:10.789Z,6.73
2022-10-25T20:55:57.730Z,7.30
2022-10-25T20:58:44.551Z,7.77
2022-10-25T21:01:31.450Z,6.97
2022-10-25T21:04:25.922Z,7.13
2022-10-25T21:07:24.205Z,7.10
2022-10-25T21:10:11.245Z,7.27
2022-10-25T21:12:59.667Z,7.00
2022-10-25T21:15:47.566Z,7.40
2022-10-25T21:18:34.223Z,7.70
2022-10-25T21:21:21.999Z,8.00
2022-10-25T21:24:11.543Z,7.10
2022-10-25T21:26:58.126Z,6.27
2022-10-25T21:29:44.776Z,8.33
2022-10-25T21:32:31.172Z,7.40
2022-10-25T21:35:18.329Z,7.57
2022-10-25T21:38:05.008Z,7.57
2022-10-25T21:40:52.924Z,8.17
2022-10-25T21:43:43.786Z,7.60
2022-10-25T21:46:30.468Z,7.47
2022-10-25T21:49:17.132Z,7.50
2022-10-25T21:52:03.436Z,7.93
2022-10-25T21:54:50.024Z,7.93
2022-10-25T21:57:37.791Z,7.77
2022-10-25T22:00:24.513Z,7.27
2022-10-25T22:03:10.991Z,7.03
2022-10-25T22:05:57.641Z,6.70
2022-10-25T22:08:44.662Z,7.03
2022-10-25T22:11:33.383Z,7.40
2022-10-25T22:14:21.484Z,7.23
2022-10-25T22:17:08.933Z,6.80
2022-10-25T22:19:55.722Z,7.67
2022-10-25T22:22:42.144Z,7.00
2022-10-25T22:25:28.621Z,7.70
2022-10-25T22:28:15.674Z,6.87
2022-10-25T22:31:06.536Z,6.77
2022-10-25T22:33:55.159Z,6.30
2022-10-25T22:36:42.951Z,7.13
2022-10-25T22:39:29.547Z,7.73
2022-10-25T22:42:15.875Z,8.40
2022-10-25T22:45:02.479Z,8.07
2022-10-25T22:47:52.531Z,8.70
2022-10-25T22:50:39.094Z,8.20
2022-10-25T22:53:25.651Z,7.93
2022-10-25T22:56:13.975Z,7.33
2022-10-25T22:59:02.996Z,7.23
2022-10-25T23:01:49.377Z,7.33
2022-10-25T23:04:37.187Z,6.83
2022-10-25T23:07:24.011Z,6.30
2022-10-25T23:10:10.848Z,6.47
2022-10-25T23:12:57.491Z,6.93
2022-10-25T23:15:44.076Z,6.40
2022-10-25T23:18:31.315Z,6.90
2022-10-25T23:21:20.354Z,7.03
2022-10-25T23:24:07.611Z,7.20
2022-10-25T23:26:54.440Z,7.13
2022-10-25T23:29:40.861Z,7.03
2022-10-25T23:32:27.354Z,6.00
2022-10-25T23:35:13.903Z,6.73
2022-10-25T23:38:01.968Z,5.83
2022-10-25T23:40:49.605Z,5.93
2022-10-25T23:43:36.518Z,5.47
2022-10-25T23:46:23.068Z,5.43
2022-10-25T23:49:09.539Z,4.80
2022-10-25T23:51:56.021Z,5.13
2022-10-25T23:54:43.735Z,5.40
2022-10-25T23:57:30.433Z,5.90
